sensor_id;sensor_type;location;lat;lon;timestamp;P1;durP1;ratioP1;P2;durP2;ratioP2
71730;SDS011;65964;43.496;3.710;2023-06-14T00:02:11;12.82;;;6.10;;
71730;SDS011;65964;43.496;3.710;2023-06-14T00:04:37;12.35;;;5.80;;
71730;SDS011;65964;43.496;3.710;2023-06-14T00:07:06;10.93;;;4.90;;
71730;SDS011;65964;43.496;3.710;2023-06-14T00:09:33;11.25;;;5.82;;
71730;SDS011;65964;43.496;3.710;2023-06-14T00:12:00;9.38;;;5.43;;
71730;SDS011;65964;43.496;3.710;2023-06-14T00:14:26;7.72;;;5.15;;
71730;SDS011;65964;43.496;3.710;2023-06-14T00:16:52;8.40;;;4.38;;
71730;SDS011;65964;43.496;3.710;2023-06-14T00:19:23;8.40;;;4.13;;
71730;SDS011;65964;43.496;3.710;2023-06-14T00:21:49;8.27;;;4.38;;
71730;SDS011;65964;43.496;3.710;2023-06-14T00:24:16;7.75;;;4.30;;
71730;SDS011;65964;43.496;3.710;2023-06-14T00:26:43;6.80;;;4.00;;
71730;SDS011;65964;43.496;3.710;2023-06-14T00:29:09;7.68;;;4.30;;
71730;SDS011;65964;43.496;3.710;2023-06-14T00:31:35;6.30;;;3.85;;
71730;SDS011;65964;43.496;3.710;2023-06-14T00:34:01;9.95;;;4.72;;
71730;SDS011;65964;43.496;3.710;2023-06-14T00:36:27;6.72;;;3.63;;
71730;SDS011;65964;43.496;3.710;2023-06-14T00:38:53;7.68;;;3.58;;
71730;SDS011;65964;43.496;3.710;2023-06-14T00:41:19;6.20;;;3.72;;
71730;SDS011;65964;43.496;3.710;2023-06-14T00:43:45;7.72;;;3.78;;
71730;SDS011;65964;43.496;3.710;2023-06-14T00:46:11;7.32;;;3.50;;
71730;SDS011;65964;43.496;3.710;2023-06-14T00:48:37;7.60;;;3.78;;
71730;SDS011;65964;43.496;3.710;2023-06-14T00:51:04;5.55;;;3.65;;
71730;SDS011;65964;43.496;3.710;2023-06-14T00:53:31;6.53;;;3.53;;
71730;SDS011;65964;43.496;3.710;2023-06-14T00:56:00;6.25;;;3.78;;
71730;SDS011;65964;43.496;3.710;2023-06-14T00:58:26;7.50;;;3.78;;
71730;SDS011;65964;43.496;3.710;2023-06-14T01:00:53;12.65;;;3.63;;
71730;SDS011;65964;43.496;3.710;2023-06-14T01:03:19;8.02;;;3.88;;
71730;SDS011;65964;43.496;3.710;2023-06-14T01:05:48;9.55;;;3.63;;
71730;SDS011;65964;43.496;3.710;2023-06-14T01:08:20;6.75;;;3.53;;
71730;SDS011;65964;43.496;3.710;2023-06-14T01:15:45;6.78;;;3.50;;
71730;SDS011;65964;43.496;3.710;2023-06-14T01:18:12;8.20;;;3.60;;
71730;SDS011;65964;43.496;3.710;2023-06-14T01:20:45;7.90;;;3.63;;
71730;SDS011;65964;43.496;3.710;2023-06-14T01:23:19;6.68;;;3.83;;
71730;SDS011;65964;43.496;3.710;2023-06-14T01:25:45;6.85;;;3.55;;
71730;SDS011;65964;43.496;3.710;2023-06-14T01:28:12;7.28;;;3.47;;
71730;SDS011;65964;43.496;3.710;2023-06-14T01:30:43;6.22;;;3.60;;
71730;SDS011;65964;43.496;3.710;2023-06-14T01:33:17;6.63;;;3.30;;
71730;SDS011;65964;43.496;3.710;2023-06-14T01:35:45;7.68;;;3.70;;
71730;SDS011;65964;43.496;3.710;2023-06-14T01:38:12;5.75;;;3.00;;
71730;SDS011;65964;43.496;3.710;2023-06-14T01:40:38;7.00;;;3.72;;
71730;SDS011;65964;43.496;3.710;2023-06-14T01:43:04;6.75;;;3.10;;
71730;SDS011;65964;43.496;3.710;2023-06-14T01:45:31;5.40;;;3.38;;
71730;SDS011;65964;43.496;3.710;2023-06-14T01:47:57;5.78;;;3.13;;
71730;SDS011;65964;43.496;3.710;2023-06-14T01:50:23;12.43;;;3.50;;
71730;SDS011;65964;43.496;3.710;2023-06-14T01:52:53;8.85;;;3.40;;
71730;SDS011;65964;43.496;3.710;2023-06-14T01:55:19;8.52;;;3.55;;
71730;SDS011;65964;43.496;3.710;2023-06-14T01:57:46;9.50;;;3.30;;
71730;SDS011;65964;43.496;3.710;2023-06-14T02:00:14;9.85;;;3.50;;
71730;SDS011;65964;43.496;3.710;2023-06-14T02:02:41;5.57;;;3.28;;
71730;SDS011;65964;43.496;3.710;2023-06-14T02:05:07;7.00;;;3.35;;
71730;SDS011;65964;43.496;3.710;2023-06-14T02:07:34;6.53;;;3.42;;
71730;SDS011;65964;43.496;3.710;2023-06-14T02:10:00;6.88;;;3.28;;
71730;SDS011;65964;43.496;3.710;2023-06-14T02:12:26;6.75;;;3.28;;
71730;SDS011;65964;43.496;3.710;2023-06-14T02:14:52;5.68;;;3.55;;
71730;SDS011;65964;43.496;3.710;2023-06-14T02:17:19;7.07;;;3.47;;
71730;SDS011;65964;43.496;3.710;2023-06-14T02:19:45;8.25;;;3.90;;
71730;SDS011;65964;43.496;3.710;2023-06-14T02:22:11;8.55;;;3.47;;
71730;SDS011;65964;43.496;3.710;2023-06-14T02:24:39;8.07;;;3.58;;
71730;SDS011;65964;43.496;3.710;2023-06-14T02:27:05;7.50;;;3.20;;
71730;SDS011;65964;43.496;3.710;2023-06-14T02:29:31;8.60;;;4.20;;
71730;SDS011;65964;43.496;3.710;2023-06-14T02:31:57;8.63;;;3.63;;
71730;SDS011;65964;43.496;3.710;2023-06-14T02:34:23;6.93;;;3.50;;
71730;SDS011;65964;43.496;3.710;2023-06-14T02:36:50;8.35;;;3.80;;
71730;SDS011;65964;43.496;3.710;2023-06-14T02:39:17;4.93;;;3.50;;
71730;SDS011;65964;43.496;3.710;2023-06-14T02:41:46;9.35;;;3.60;;
71730;SDS011;65964;43.496;3.710;2023-06-14T02:44:13;8.18;;;3.30;;
71730;SDS011;65964;43.496;3.710;2023-06-14T02:46:39;7.43;;;3.50;;
71730;SDS011;65964;43.496;3.710;2023-06-14T02:49:06;8.25;;;3.70;;
71730;SDS011;65964;43.496;3.710;2023-06-14T02:51:32;6.35;;;3.58;;
71730;SDS011;65964;43.496;3.710;2023-06-14T02:53:58;6.75;;;3.60;;
71730;SDS011;65964;43.496;3.710;2023-06-14T02:56:24;5.00;;;3.28;;
71730;SDS011;65964;43.496;3.710;2023-06-14T02:58:51;6.80;;;3.42;;
71730;SDS011;65964;43.496;3.710;2023-06-14T03:01:18;7.10;;;3.65;;
71730;SDS011;65964;43.496;3.710;2023-06-14T03:03:45;7.15;;;3.60;;
71730;SDS011;65964;43.496;3.710;2023-06-14T03:06:11;8.98;;;4.00;;
71730;SDS011;65964;43.496;3.710;2023-06-14T03:08:39;6.97;;;3.53;;
71730;SDS011;65964;43.496;3.710;2023-06-14T03:11:06;8.63;;;3.75;;
71730;SDS011;65964;43.496;3.710;2023-06-14T03:13:36;7.60;;;3.40;;
71730;SDS011;65964;43.496;3.710;2023-06-14T03:16:03;6.43;;;3.63;;
71730;SDS011;65964;43.496;3.710;2023-06-14T03:18:30;11.85;;;3.72;;
71730;SDS011;65964;43.496;3.710;2023-06-14T03:21:00;9.63;;;4.10;;
71730;SDS011;65964;43.496;3.710;2023-06-14T03:23:26;7.90;;;3.72;;
71730;SDS011;65964;43.496;3.710;2023-06-14T03:25:52;11.23;;;3.97;;
71730;SDS011;65964;43.496;3.710;2023-06-14T03:28:18;8.93;;;3.53;;
71730;SDS011;65964;43.496;3.710;2023-06-14T03:30:45;8.60;;;3.92;;
71730;SDS011;65964;43.496;3.710;2023-06-14T03:33:11;7.35;;;3.72;;
71730;SDS011;65964;43.496;3.710;2023-06-14T03:35:37;9.38;;;3.47;;
71730;SDS011;65964;43.496;3.710;2023-06-14T03:38:03;9.57;;;3.85;;
71730;SDS011;65964;43.496;3.710;2023-06-14T03:40:29;5.50;;;3.35;;
71730;SDS011;65964;43.496;3.710;2023-06-14T03:42:56;9.90;;;3.80;;
71730;SDS011;65964;43.496;3.710;2023-06-14T03:45:22;6.03;;;3.70;;
71730;SDS011;65964;43.496;3.710;2023-06-14T03:47:48;7.65;;;3.70;;
71730;SDS011;65964;43.496;3.710;2023-06-14T03:50:15;6.35;;;3.70;;
71730;SDS011;65964;43.496;3.710;2023-06-14T03:52:41;6.05;;;3.70;;
71730;SDS011;65964;43.496;3.710;2023-06-14T03:55:08;7.32;;;3.55;;
71730;SDS011;65964;43.496;3.710;2023-06-14T03:57:35;7.85;;;3.42;;
71730;SDS011;65964;43.496;3.710;2023-06-14T04:00:01;5.53;;;3.45;;
71730;SDS011;65964;43.496;3.710;2023-06-14T04:02:30;12.30;;;3.80;;
71730;SDS011;65964;43.496;3.710;2023-06-14T04:04:56;7.30;;;3.90;;
71730;SDS011;65964;43.496;3.710;2023-06-14T04:07:22;7.40;;;3.47;;
71730;SDS011;65964;43.496;3.710;2023-06-14T04:09:50;10.93;;;3.97;;
71730;SDS011;65964;43.496;3.710;2023-06-14T04:12:16;11.82;;;3.80;;
71730;SDS011;65964;43.496;3.710;2023-06-14T04:14:42;12.10;;;3.97;;
71730;SDS011;65964;43.496;3.710;2023-06-14T04:17:08;14.07;;;4.07;;
71730;SDS011;65964;43.496;3.710;2023-06-14T04:19:34;7.88;;;3.60;;
71730;SDS011;65964;43.496;3.710;2023-06-14T04:22:01;6.18;;;3.45;;
71730;SDS011;65964;43.496;3.710;2023-06-14T04:24:27;6.28;;;3.50;;
71730;SDS011;65964;43.496;3.710;2023-06-14T04:26:59;11.00;;;4.45;;
71730;SDS011;65964;43.496;3.710;2023-06-14T04:29:26;7.18;;;3.50;;
71730;SDS011;65964;43.496;3.710;2023-06-14T04:31:54;6.60;;;3.53;;
71730;SDS011;65964;43.496;3.710;2023-06-14T04:34:24;8.40;;;3.30;;
71730;SDS011;65964;43.496;3.710;2023-06-14T04:36:55;9.00;;;3.80;;
71730;SDS011;65964;43.496;3.710;2023-06-14T04:39:23;11.85;;;4.00;;
71730;SDS011;65964;43.496;3.710;2023-06-14T04:41:50;7.68;;;4.20;;
71730;SDS011;65964;43.496;3.710;2023-06-14T04:44:18;9.55;;;4.32;;
71730;SDS011;65964;43.496;3.710;2023-06-14T04:46:45;17.38;;;4.43;;
71730;SDS011;65964;43.496;3.710;2023-06-14T04:49:14;16.27;;;4.57;;
71730;SDS011;65964;43.496;3.710;2023-06-14T04:51:44;7.50;;;3.40;;
71730;SDS011;65964;43.496;3.710;2023-06-14T04:54:11;11.50;;;4.05;;
71730;SDS011;65964;43.496;3.710;2023-06-14T04:56:40;9.15;;;3.70;;
71730;SDS011;65964;43.496;3.710;2023-06-14T04:59:07;6.25;;;3.63;;
71730;SDS011;65964;43.496;3.710;2023-06-14T05:01:34;5.93;;;3.70;;
71730;SDS011;65964;43.496;3.710;2023-06-14T05:04:00;9.10;;;3.67;;
71730;SDS011;65964;43.496;3.710;2023-06-14T05:06:26;12.02;;;3.92;;
71730;SDS011;65964;43.496;3.710;2023-06-14T05:08:53;14.43;;;4.60;;
71730;SDS011;65964;43.496;3.710;2023-06-14T05:11:19;7.38;;;3.42;;
71730;SDS011;65964;43.496;3.710;2023-06-14T05:13:45;7.07;;;3.38;;
71730;SDS011;65964;43.496;3.710;2023-06-14T05:16:11;7.65;;;3.50;;
71730;SDS011;65964;43.496;3.710;2023-06-14T05:18:38;8.05;;;3.60;;
71730;SDS011;65964;43.496;3.710;2023-06-14T05:21:05;7.90;;;3.50;;
71730;SDS011;65964;43.496;3.710;2023-06-14T05:23:31;8.07;;;3.85;;
71730;SDS011;65964;43.496;3.710;2023-06-14T05:25:57;5.30;;;3.20;;
71730;SDS011;65964;43.496;3.710;2023-06-14T05:28:23;6.47;;;3.60;;
71730;SDS011;65964;43.496;3.710;2023-06-14T05:30:50;8.07;;;3.35;;
71730;SDS011;65964;43.496;3.710;2023-06-14T05:33:16;6.55;;;3.47;;
71730;SDS011;65964;43.496;3.710;2023-06-14T05:35:42;9.65;;;4.00;;
71730;SDS011;65964;43.496;3.710;2023-06-14T05:38:08;9.30;;;3.88;;
71730;SDS011;65964;43.496;3.710;2023-06-14T05:40:34;12.55;;;4.28;;
71730;SDS011;65964;43.496;3.710;2023-06-14T05:43:00;8.77;;;4.30;;
71730;SDS011;65964;43.496;3.710;2023-06-14T05:45:26;8.25;;;3.47;;
71730;SDS011;65964;43.496;3.710;2023-06-14T05:47:52;8.70;;;3.30;;
71730;SDS011;65964;43.496;3.710;2023-06-14T05:50:21;7.95;;;3.60;;
71730;SDS011;65964;43.496;3.710;2023-06-14T05:52:47;12.82;;;5.30;;
71730;SDS011;65964;43.496;3.710;2023-06-14T05:55:15;13.18;;;3.80;;
71730;SDS011;65964;43.496;3.710;2023-06-14T05:57:42;11.15;;;3.60;;
71730;SDS011;65964;43.496;3.710;2023-06-14T06:00:08;7.60;;;3.30;;
71730;SDS011;65964;43.496;3.710;2023-06-14T06:02:39;9.18;;;3.45;;
71730;SDS011;65964;43.496;3.710;2023-06-14T06:05:07;15.25;;;3.90;;
71730;SDS011;65964;43.496;3.710;2023-06-14T06:07:33;10.10;;;3.63;;
71730;SDS011;65964;43.496;3.710;2023-06-14T06:09:59;8.07;;;3.28;;
71730;SDS011;65964;43.496;3.710;2023-06-14T06:12:25;8.63;;;3.60;;
71730;SDS011;65964;43.496;3.710;2023-06-14T06:14:51;11.13;;;3.65;;
71730;SDS011;65964;43.496;3.710;2023-06-14T06:17:17;9.40;;;3.72;;
71730;SDS011;65964;43.496;3.710;2023-06-14T06:19:43;10.35;;;3.55;;
71730;SDS011;65964;43.496;3.710;2023-06-14T06:22:09;8.25;;;3.53;;
71730;SDS011;65964;43.496;3.710;2023-06-14T06:24:35;6.50;;;3.10;;
71730;SDS011;65964;43.496;3.710;2023-06-14T06:27:01;15.02;;;4.05;;
71730;SDS011;65964;43.496;3.710;2023-06-14T06:29:27;11.35;;;3.90;;
71730;SDS011;65964;43.496;3.710;2023-06-14T06:31:54;8.32;;;3.10;;
71730;SDS011;65964;43.496;3.710;2023-06-14T06:34:21;7.25;;;3.13;;
71730;SDS011;65964;43.496;3.710;2023-06-14T06:36:47;9.65;;;3.40;;
71730;SDS011;65964;43.496;3.710;2023-06-14T06:39:13;6.55;;;3.22;;
71730;SDS011;65964;43.496;3.710;2023-06-14T06:41:40;13.65;;;3.78;;
71730;SDS011;65964;43.496;3.710;2023-06-14T06:44:06;7.88;;;3.28;;
71730;SDS011;65964;43.496;3.710;2023-06-14T06:46:33;12.25;;;4.07;;
71730;SDS011;65964;43.496;3.710;2023-06-14T06:49:00;5.97;;;3.30;;
71730;SDS011;65964;43.496;3.710;2023-06-14T06:51:26;8.65;;;3.42;;
71730;SDS011;65964;43.496;3.710;2023-06-14T06:53:52;9.70;;;3.38;;
71730;SDS011;65964;43.496;3.710;2023-06-14T06:56:19;4.85;;;3.15;;
71730;SDS011;65964;43.496;3.710;2023-06-14T06:58:45;5.35;;;2.90;;
71730;SDS011;65964;43.496;3.710;2023-06-14T07:01:12;6.72;;;3.13;;
71730;SDS011;65964;43.496;3.710;2023-06-14T07:03:38;7.07;;;3.20;;
71730;SDS011;65964;43.496;3.710;2023-06-14T07:06:04;10.02;;;3.20;;
71730;SDS011;65964;43.496;3.710;2023-06-14T07:08:30;7.25;;;2.90;;
71730;SDS011;65964;43.496;3.710;2023-06-14T07:10:56;15.98;;;4.47;;
71730;SDS011;65964;43.496;3.710;2023-06-14T07:13:23;5.30;;;3.17;;
71730;SDS011;65964;43.496;3.710;2023-06-14T07:15:49;6.38;;;3.30;;
71730;SDS011;65964;43.496;3.710;2023-06-14T07:18:15;7.05;;;3.20;;
71730;SDS011;65964;43.496;3.710;2023-06-14T07:20:41;4.47;;;2.42;;
71730;SDS011;65964;43.496;3.710;2023-06-14T07:23:08;6.57;;;3.03;;
71730;SDS011;65964;43.496;3.710;2023-06-14T07:25:34;7.55;;;3.00;;
71730;SDS011;65964;43.496;3.710;2023-06-14T07:28:00;6.25;;;3.10;;
71730;SDS011;65964;43.496;3.710;2023-06-14T07:30:26;7.68;;;3.10;;
71730;SDS011;65964;43.496;3.710;2023-06-14T07:32:54;3.63;;;2.70;;
71730;SDS011;65964;43.496;3.710;2023-06-14T07:35:21;6.72;;;2.83;;
71730;SDS011;65964;43.496;3.710;2023-06-14T07:37:47;5.88;;;2.88;;
71730;SDS011;65964;43.496;3.710;2023-06-14T07:40:14;3.88;;;2.55;;
71730;SDS011;65964;43.496;3.710;2023-06-14T07:42:41;3.75;;;2.50;;
71730;SDS011;65964;43.496;3.710;2023-06-14T07:45:07;6.13;;;3.00;;
71730;SDS011;65964;43.496;3.710;2023-06-14T07:47:33;13.27;;;3.70;;
71730;SDS011;65964;43.496;3.710;2023-06-14T07:49:59;5.30;;;2.50;;
71730;SDS011;65964;43.496;3.710;2023-06-14T07:52:25;4.57;;;2.30;;
71730;SDS011;65964;43.496;3.710;2023-06-14T07:54:51;5.53;;;2.60;;
71730;SDS011;65964;43.496;3.710;2023-06-14T07:57:17;8.63;;;2.83;;
71730;SDS011;65964;43.496;3.710;2023-06-14T07:59:45;5.05;;;2.70;;
71730;SDS011;65964;43.496;3.710;2023-06-14T08:02:11;12.23;;;5.95;;
71730;SDS011;65964;43.496;3.710;2023-06-14T08:04:37;8.63;;;3.72;;
71730;SDS011;65964;43.496;3.710;2023-06-14T08:07:03;6.50;;;3.60;;
71730;SDS011;65964;43.496;3.710;2023-06-14T08:09:29;8.95;;;2.80;;
71730;SDS011;65964;43.496;3.710;2023-06-14T08:11:55;5.57;;;3.05;;
71730;SDS011;65964;43.496;3.710;2023-06-14T08:14:22;5.60;;;2.70;;
71730;SDS011;65964;43.496;3.710;2023-06-14T08:16:48;10.32;;;3.45;;
71730;SDS011;65964;43.496;3.710;2023-06-14T08:19:14;11.48;;;3.25;;
71730;SDS011;65964;43.496;3.710;2023-06-14T08:21:41;6.90;;;3.10;;
71730;SDS011;65964;43.496;3.710;2023-06-14T08:24:08;5.85;;;3.00;;
71730;SDS011;65964;43.496;3.710;2023-06-14T08:26:35;5.78;;;3.00;;
71730;SDS011;65964;43.496;3.710;2023-06-14T08:29:01;5.97;;;2.70;;
71730;SDS011;65964;43.496;3.710;2023-06-14T08:31:27;6.30;;;2.78;;
71730;SDS011;65964;43.496;3.710;2023-06-14T08:33:53;6.57;;;2.80;;
71730;SDS011;65964;43.496;3.710;2023-06-14T08:36:19;8.60;;;3.67;;
71730;SDS011;65964;43.496;3.710;2023-06-14T08:38:47;6.25;;;2.65;;
71730;SDS011;65964;43.496;3.710;2023-06-14T08:41:13;5.18;;;2.42;;
71730;SDS011;65964;43.496;3.710;2023-06-14T08:43:45;7.10;;;2.88;;
71730;SDS011;65964;43.496;3.710;2023-06-14T08:46:11;3.53;;;2.35;;
71730;SDS011;65964;43.496;3.710;2023-06-14T08:48:41;4.80;;;2.78;;
71730;SDS011;65964;43.496;3.710;2023-06-14T08:51:08;7.40;;;3.83;;
71730;SDS011;65964;43.496;3.710;2023-06-14T08:53:35;4.03;;;2.83;;
71730;SDS011;65964;43.496;3.710;2023-06-14T08:56:07;7.07;;;3.03;;
71730;SDS011;65964;43.496;3.710;2023-06-14T08:58:44;4.97;;;2.63;;
71730;SDS011;65964;43.496;3.710;2023-06-14T09:01:11;5.10;;;2.60;;
71730;SDS011;65964;43.496;3.710;2023-06-14T09:03:40;4.47;;;2.80;;
71730;SDS011;65964;43.496;3.710;2023-06-14T09:06:06;4.72;;;3.00;;
71730;SDS011;65964;43.496;3.710;2023-06-14T09:08:38;4.88;;;2.70;;
71730;SDS011;65964;43.496;3.710;2023-06-14T09:11:05;6.03;;;2.75;;
71730;SDS011;65964;43.496;3.710;2023-06-14T09:13:31;3.47;;;2.45;;
71730;SDS011;65964;43.496;3.710;2023-06-14T09:15:57;3.65;;;2.63;;
71730;SDS011;65964;43.496;3.710;2023-06-14T09:18:33;8.20;;;3.00;;
71730;SDS011;65964;43.496;3.710;2023-06-14T09:20:59;3.33;;;2.50;;
71730;SDS011;65964;43.496;3.710;2023-06-14T09:23:25;3.85;;;2.58;;
71730;SDS011;65964;43.496;3.710;2023-06-14T09:25:51;5.20;;;2.70;;
71730;SDS011;65964;43.496;3.710;2023-06-14T09:28:17;3.45;;;2.70;;
71730;SDS011;65964;43.496;3.710;2023-06-14T09:30:45;5.85;;;2.55;;
71730;SDS011;65964;43.496;3.710;2023-06-14T09:33:16;4.15;;;2.65;;
71730;SDS011;65964;43.496;3.710;2023-06-14T09:35:44;3.40;;;2.30;;
71730;SDS011;65964;43.496;3.710;2023-06-14T09:38:10;4.15;;;2.78;;
71730;SDS011;65964;43.496;3.710;2023-06-14T09:40:36;3.42;;;2.80;;
71730;SDS011;65964;43.496;3.710;2023-06-14T09:43:05;5.97;;;2.67;;
71730;SDS011;65964;43.496;3.710;2023-06-14T09:45:34;4.68;;;3.00;;
71730;SDS011;65964;43.496;3.710;2023-06-14T09:48:00;5.45;;;2.95;;
71730;SDS011;65964;43.496;3.710;2023-06-14T09:50:26;7.38;;;2.92;;
71730;SDS011;65964;43.496;3.710;2023-06-14T09:52:52;6.50;;;2.80;;
71730;SDS011;65964;43.496;3.710;2023-06-14T09:55:21;6.85;;;3.10;;
71730;SDS011;65964;43.496;3.710;2023-06-14T09:57:47;5.07;;;2.83;;
71730;SDS011;65964;43.496;3.710;2023-06-14T10:00:13;5.57;;;3.00;;
71730;SDS011;65964;43.496;3.710;2023-06-14T10:02:40;5.50;;;2.80;;
71730;SDS011;65964;43.496;3.710;2023-06-14T10:05:12;6.85;;;3.10;;
71730;SDS011;65964;43.496;3.710;2023-06-14T10:10:13;5.45;;;3.22;;
71730;SDS011;65964;43.496;3.710;2023-06-14T10:12:39;5.82;;;3.10;;
71730;SDS011;65964;43.496;3.710;2023-06-14T10:15:07;5.80;;;2.80;;
71730;SDS011;65964;43.496;3.710;2023-06-14T10:17:46;4.32;;;2.90;;
71730;SDS011;65964;43.496;3.710;2023-06-14T10:22:55;5.32;;;3.00;;
71730;SDS011;65964;43.496;3.710;2023-06-14T10:25:26;4.07;;;2.92;;
71730;SDS011;65964;43.496;3.710;2023-06-14T10:28:00;5.00;;;2.90;;
71730;SDS011;65964;43.496;3.710;2023-06-14T10:30:27;4.47;;;2.88;;
71730;SDS011;65964;43.496;3.710;2023-06-14T10:33:03;5.38;;;3.20;;
71730;SDS011;65964;43.496;3.710;2023-06-14T10:35:30;5.35;;;3.10;;
71730;SDS011;65964;43.496;3.710;2023-06-14T10:38:05;3.80;;;2.75;;
71730;SDS011;65964;43.496;3.710;2023-06-14T10:40:31;5.13;;;2.80;;
71730;SDS011;65964;43.496;3.710;2023-06-14T10:42:58;4.18;;;3.00;;
71730;SDS011;65964;43.496;3.710;2023-06-14T10:45:25;4.00;;;2.70;;
71730;SDS011;65964;43.496;3.710;2023-06-14T10:47:51;4.80;;;2.70;;
71730;SDS011;65964;43.496;3.710;2023-06-14T10:50:22;4.93;;;2.35;;
71730;SDS011;65964;43.496;3.710;2023-06-14T10:52:53;3.70;;;2.70;;
71730;SDS011;65964;43.496;3.710;2023-06-14T10:55:19;4.25;;;2.85;;
71730;SDS011;65964;43.496;3.710;2023-06-14T10:57:51;6.15;;;3.20;;
71730;SDS011;65964;43.496;3.710;2023-06-14T11:00:21;6.05;;;2.88;;
71730;SDS011;65964;43.496;3.710;2023-06-14T11:05:25;4.35;;;2.63;;
71730;SDS011;65964;43.496;3.710;2023-06-14T11:12:45;6.00;;;3.13;;
71730;SDS011;65964;43.496;3.710;2023-06-14T11:15:13;6.38;;;3.00;;
71730;SDS011;65964;43.496;3.710;2023-06-14T11:17:39;3.90;;;2.83;;
71730;SDS011;65964;43.496;3.710;2023-06-14T11:20:11;5.28;;;2.97;;
71730;SDS011;65964;43.496;3.710;2023-06-14T11:22:44;5.25;;;3.42;;
71730;SDS011;65964;43.496;3.710;2023-06-14T11:25:13;6.15;;;3.50;;
71730;SDS011;65964;43.496;3.710;2023-06-14T11:27:43;5.97;;;3.75;;
71730;SDS011;65964;43.496;3.710;2023-06-14T11:30:09;6.75;;;3.90;;
71730;SDS011;65964;43.496;3.710;2023-06-14T11:32:36;5.32;;;3.88;;
71730;SDS011;65964;43.496;3.710;2023-06-14T11:35:02;7.82;;;3.78;;
71730;SDS011;65964;43.496;3.710;2023-06-14T11:37:30;7.05;;;3.60;;
71730;SDS011;65964;43.496;3.710;2023-06-14T11:39:58;6.57;;;4.00;;
71730;SDS011;65964;43.496;3.710;2023-06-14T11:42:24;5.38;;;3.45;;
71730;SDS011;65964;43.496;3.710;2023-06-14T11:44:53;5.05;;;3.17;;
71730;SDS011;65964;43.496;3.710;2023-06-14T11:47:19;6.22;;;3.42;;
71730;SDS011;65964;43.496;3.710;2023-06-14T11:49:45;4.78;;;3.40;;
71730;SDS011;65964;43.496;3.710;2023-06-14T11:52:12;9.02;;;3.55;;
71730;SDS011;65964;43.496;3.710;2023-06-14T11:54:38;5.32;;;3.80;;
71730;SDS011;65964;43.496;3.710;2023-06-14T11:57:09;6.97;;;3.85;;
71730;SDS011;65964;43.496;3.710;2023-06-14T11:59:39;5.85;;;3.10;;
71730;SDS011;65964;43.496;3.710;2023-06-14T12:02:05;5.35;;;3.33;;
71730;SDS011;65964;43.496;3.710;2023-06-14T12:04:31;5.85;;;3.60;;
71730;SDS011;65964;43.496;3.710;2023-06-14T12:07:08;4.95;;;3.60;;
71730;SDS011;65964;43.496;3.710;2023-06-14T12:09:36;5.57;;;3.45;;
71730;SDS011;65964;43.496;3.710;2023-06-14T12:12:02;6.82;;;3.63;;
71730;SDS011;65964;43.496;3.710;2023-06-14T12:14:29;6.80;;;3.65;;
71730;SDS011;65964;43.496;3.710;2023-06-14T12:17:03;4.68;;;3.42;;
71730;SDS011;65964;43.496;3.710;2023-06-14T12:21:57;5.50;;;3.20;;
71730;SDS011;65964;43.496;3.710;2023-06-14T12:24:29;7.55;;;3.40;;
71730;SDS011;65964;43.496;3.710;2023-06-14T12:26:57;5.57;;;3.17;;
71730;SDS011;65964;43.496;3.710;2023-06-14T12:29:28;5.82;;;3.50;;
71730;SDS011;65964;43.496;3.710;2023-06-14T12:31:54;8.00;;;3.83;;
71730;SDS011;65964;43.496;3.710;2023-06-14T12:34:22;7.00;;;3.30;;
71730;SDS011;65964;43.496;3.710;2023-06-14T12:36:49;7.75;;;3.28;;
71730;SDS011;65964;43.496;3.710;2023-06-14T12:39:16;7.85;;;3.80;;
71730;SDS011;65964;43.496;3.710;2023-06-14T12:41:42;6.45;;;3.90;;
71730;SDS011;65964;43.496;3.710;2023-06-14T12:44:08;9.80;;;4.40;;
71730;SDS011;65964;43.496;3.710;2023-06-14T12:46:34;7.85;;;4.63;;
71730;SDS011;65964;43.496;3.710;2023-06-14T12:49:01;7.75;;;4.20;;
71730;SDS011;65964;43.496;3.710;2023-06-14T12:51:28;9.32;;;4.20;;
71730;SDS011;65964;43.496;3.710;2023-06-14T12:53:54;7.22;;;4.40;;
71730;SDS011;65964;43.496;3.710;2023-06-14T12:56:20;7.78;;;4.75;;
71730;SDS011;65964;43.496;3.710;2023-06-14T12:58:46;9.75;;;4.78;;
71730;SDS011;65964;43.496;3.710;2023-06-14T13:01:12;7.00;;;4.68;;
71730;SDS011;65964;43.496;3.710;2023-06-14T13:03:38;9.23;;;4.38;;
71730;SDS011;65964;43.496;3.710;2023-06-14T13:06:04;8.00;;;4.60;;
71730;SDS011;65964;43.496;3.710;2023-06-14T13:08:30;10.02;;;5.00;;
71730;SDS011;65964;43.496;3.710;2023-06-14T13:10:57;11.48;;;5.55;;
71730;SDS011;65964;43.496;3.710;2023-06-14T13:13:23;11.27;;;5.15;;
71730;SDS011;65964;43.496;3.710;2023-06-14T13:15:49;10.02;;;4.72;;
71730;SDS011;65964;43.496;3.710;2023-06-14T13:18:16;16.98;;;5.50;;
71730;SDS011;65964;43.496;3.710;2023-06-14T13:20:42;10.68;;;5.22;;
71730;SDS011;65964;43.496;3.710;2023-06-14T13:23:08;7.80;;;4.50;;
71730;SDS011;65964;43.496;3.710;2023-06-14T13:25:35;12.10;;;5.22;;
71730;SDS011;65964;43.496;3.710;2023-06-14T13:28:02;7.65;;;4.50;;
71730;SDS011;65964;43.496;3.710;2023-06-14T13:30:28;8.13;;;4.30;;
71730;SDS011;65964;43.496;3.710;2023-06-14T13:32:54;9.68;;;4.05;;
71730;SDS011;65964;43.496;3.710;2023-06-14T13:35:21;8.02;;;4.53;;
71730;SDS011;65964;43.496;3.710;2023-06-14T13:37:47;11.48;;;4.63;;
71730;SDS011;65964;43.496;3.710;2023-06-14T13:40:13;10.60;;;4.47;;
71730;SDS011;65964;43.496;3.710;2023-06-14T13:42:39;8.85;;;4.15;;
71730;SDS011;65964;43.496;3.710;2023-06-14T13:45:05;13.85;;;5.30;;
71730;SDS011;65964;43.496;3.710;2023-06-14T13:47:32;9.65;;;4.80;;
71730;SDS011;65964;43.496;3.710;2023-06-14T13:49:58;14.95;;;6.03;;
71730;SDS011;65964;43.496;3.710;2023-06-14T13:52:24;6.93;;;4.68;;
71730;SDS011;65964;43.496;3.710;2023-06-14T13:54:51;7.13;;;5.05;;
71730;SDS011;65964;43.496;3.710;2023-06-14T13:57:17;11.32;;;5.30;;
71730;SDS011;65964;43.496;3.710;2023-06-14T13:59:43;8.45;;;5.00;;
71730;SDS011;65964;43.496;3.710;2023-06-14T14:02:10;8.98;;;5.20;;
71730;SDS011;65964;43.496;3.710;2023-06-14T14:04:37;10.30;;;5.05;;
71730;SDS011;65964;43.496;3.710;2023-06-14T14:07:03;9.63;;;5.22;;
71730;SDS011;65964;43.496;3.710;2023-06-14T14:09:30;11.63;;;5.57;;
71730;SDS011;65964;43.496;3.710;2023-06-14T14:11:57;9.23;;;5.35;;
71730;SDS011;65964;43.496;3.710;2023-06-14T14:14:23;8.07;;;4.93;;
71730;SDS011;65964;43.496;3.710;2023-06-14T14:16:50;13.00;;;5.47;;
71730;SDS011;65964;43.496;3.710;2023-06-14T14:19:20;12.55;;;5.90;;
71730;SDS011;65964;43.496;3.710;2023-06-14T14:21:46;13.30;;;5.72;;
71730;SDS011;65964;43.496;3.710;2023-06-14T14:24:12;12.93;;;5.32;;
71730;SDS011;65964;43.496;3.710;2023-06-14T14:26:38;7.68;;;5.20;;
71730;SDS011;65964;43.496;3.710;2023-06-14T14:29:04;8.65;;;5.30;;
71730;SDS011;65964;43.496;3.710;2023-06-14T14:31:30;7.63;;;5.00;;
71730;SDS011;65964;43.496;3.710;2023-06-14T14:33:57;7.80;;;5.40;;
71730;SDS011;65964;43.496;3.710;2023-06-14T14:36:23;10.50;;;5.97;;
71730;SDS011;65964;43.496;3.710;2023-06-14T14:38:49;11.27;;;7.30;;
71730;SDS011;65964;43.496;3.710;2023-06-14T14:41:16;11.02;;;6.65;;
71730;SDS011;65964;43.496;3.710;2023-06-14T14:43:42;11.65;;;6.40;;
71730;SDS011;65964;43.496;3.710;2023-06-14T14:46:09;9.85;;;6.25;;
71730;SDS011;65964;43.496;3.710;2023-06-14T14:48:35;10.07;;;5.70;;
71730;SDS011;65964;43.496;3.710;2023-06-14T14:51:01;8.32;;;5.95;;
71730;SDS011;65964;43.496;3.710;2023-06-14T14:53:27;9.95;;;6.70;;
71730;SDS011;65964;43.496;3.710;2023-06-14T14:55:53;12.30;;;7.13;;
71730;SDS011;65964;43.496;3.710;2023-06-14T14:58:19;19.80;;;7.35;;
71730;SDS011;65964;43.496;3.710;2023-06-14T15:00:45;13.00;;;7.00;;
71730;SDS011;65964;43.496;3.710;2023-06-14T15:03:11;17.48;;;8.60;;
71730;SDS011;65964;43.496;3.710;2023-06-14T15:05:37;12.43;;;6.82;;